sensor_id;sensor_type;location;lat;lon;timestamp;P1;durP1;ratioP1;P2;durP2;ratioP2
5333;SDS011;2689;50.954;7.116;2023-05-10T00:00:55;8.90;;;7.80;;
5333;SDS011;2689;50.954;7.116;2023-05-10T00:03:21;8.87;;;7.97;;
5333;SDS011;2689;50.954;7.116;2023-05-10T00:05:48;8.00;;;7.20;;
5333;SDS011;2689;50.954;7.116;2023-05-10T00:08:15;8.40;;;7.60;;
5333;SDS011;2689;50.954;7.116;2023-05-10T00:10:41;8.87;;;7.93;;
5333;SDS011;2689;50.954;7.116;2023-05-10T00:13:08;8.90;;;8.00;;
5333;SDS011;2689;50.954;7.116;2023-05-10T00:15:36;8.83;;;8.03;;
5333;SDS011;2689;50.954;7.116;2023-05-10T00:18:03;8.97;;;8.07;;
5333;SDS011;2689;50.954;7.116;2023-05-10T00:20:30;9.70;;;7.63;;
5333;SDS011;2689;50.954;7.116;2023-05-10T00:22:59;9.77;;;7.60;;
5333;SDS011;2689;50.954;7.116;2023-05-10T00:25:26;9.93;;;8.90;;
5333;SDS011;2689;50.954;7.116;2023-05-10T00:27:52;10.37;;;9.27;;
5333;SDS011;2689;50.954;7.116;2023-05-10T00:30:24;10.20;;;7.80;;
5333;SDS011;2689;50.954;7.116;2023-05-10T00:32:52;9.03;;;7.70;;
5333;SDS011;2689;50.954;7.116;2023-05-10T00:35:18;8.73;;;7.83;;
5333;SDS011;2689;50.954;7.116;2023-05-10T00:37:46;14.07;;;9.60;;
5333;SDS011;2689;50.954;7.116;2023-05-10T00:40:13;11.23;;;8.77;;
5333;SDS011;2689;50.954;7.116;2023-05-10T00:42:40;11.17;;;9.40;;
5333;SDS011;2689;50.954;7.116;2023-05-10T00:45:07;12.60;;;9.00;;
5333;SDS011;2689;50.954;7.116;2023-05-10T00:47:34;12.53;;;9.33;;
5333;SDS011;2689;50.954;7.116;2023-05-10T00:50:02;9.70;;;8.43;;
5333;SDS011;2689;50.954;7.116;2023-05-10T00:52:30;10.10;;;9.10;;
5333;SDS011;2689;50.954;7.116;2023-05-10T00:54:57;10.90;;;9.17;;
5333;SDS011;2689;50.954;7.116;2023-05-10T00:57:24;11.73;;;9.67;;
5333;SDS011;2689;50.954;7.116;2023-05-10T00:59:50;11.30;;;10.10;;
5333;SDS011;2689;50.954;7.116;2023-05-10T01:02:25;11.53;;;10.20;;
5333;SDS011;2689;50.954;7.116;2023-05-10T01:04:52;11.47;;;10.23;;
5333;SDS011;2689;50.954;7.116;2023-05-10T01:07:23;12.00;;;10.57;;
5333;SDS011;2689;50.954;7.116;2023-05-10T01:09:50;12.77;;;11.00;;
5333;SDS011;2689;50.954;7.116;2023-05-10T01:12:17;15.43;;;11.50;;
5333;SDS011;2689;50.954;7.116;2023-05-10T01:14:44;13.57;;;10.60;;
5333;SDS011;2689;50.954;7.116;2023-05-10T01:17:11;16.73;;;12.30;;
5333;SDS011;2689;50.954;7.116;2023-05-10T01:19:38;13.37;;;11.27;;
5333;SDS011;2689;50.954;7.116;2023-05-10T01:22:07;14.00;;;11.30;;
5333;SDS011;2689;50.954;7.116;2023-05-10T01:25:02;15.30;;;12.73;;
5333;SDS011;2689;50.954;7.116;2023-05-10T01:27:48;19.87;;;12.30;;
5333;SDS011;2689;50.954;7.116;2023-05-10T01:33:44;17.80;;;14.00;;
5333;SDS011;2689;50.954;7.116;2023-05-10T01:36:17;17.37;;;13.20;;
5333;SDS011;2689;50.954;7.116;2023-05-10T01:38:51;18.80;;;12.87;;
5333;SDS011;2689;50.954;7.116;2023-05-10T01:41:24;17.23;;;12.63;;
5333;SDS011;2689;50.954;7.116;2023-05-10T01:43:57;18.60;;;13.60;;
5333;SDS011;2689;50.954;7.116;2023-05-10T01:46:31;19.10;;;12.13;;
5333;SDS011;2689;50.954;7.116;2023-05-10T01:49:02;16.50;;;13.83;;
5333;SDS011;2689;50.954;7.116;2023-05-10T01:51:36;16.70;;;13.37;;
5333;SDS011;2689;50.954;7.116;2023-05-10T01:54:05;19.83;;;14.40;;
5333;SDS011;2689;50.954;7.116;2023-05-10T01:56:34;20.50;;;13.60;;
5333;SDS011;2689;50.954;7.116;2023-05-10T01:59:05;18.73;;;14.67;;
5333;SDS011;2689;50.954;7.116;2023-05-10T02:01:39;17.70;;;14.33;;
5333;SDS011;2689;50.954;7.116;2023-05-10T02:04:09;21.80;;;13.97;;
5333;SDS011;2689;50.954;7.116;2023-05-10T02:06:39;19.30;;;14.27;;
5333;SDS011;2689;50.954;7.116;2023-05-10T02:09:06;34.70;;;15.40;;
5333;SDS011;2689;50.954;7.116;2023-05-10T02:11:35;20.40;;;13.73;;
5333;SDS011;2689;50.954;7.116;2023-05-10T02:14:05;20.07;;;14.77;;
5333;SDS011;2689;50.954;7.116;2023-05-10T02:16:35;20.30;;;13.60;;
5333;SDS011;2689;50.954;7.116;2023-05-10T02:19:02;13.50;;;11.63;;
5333;SDS011;2689;50.954;7.116;2023-05-10T02:21:34;10.07;;;9.00;;
5333;SDS011;2689;50.954;7.116;2023-05-10T02:24:03;14.20;;;6.70;;
5333;SDS011;2689;50.954;7.116;2023-05-10T02:26:31;7.60;;;5.57;;
5333;SDS011;2689;50.954;7.116;2023-05-10T02:29:00;9.57;;;5.93;;
5333;SDS011;2689;50.954;7.116;2023-05-10T02:31:29;10.80;;;5.97;;
5333;SDS011;2689;50.954;7.116;2023-05-10T02:33:56;9.87;;;5.43;;
5333;SDS011;2689;50.954;7.116;2023-05-10T02:36:25;8.70;;;5.77;;
5333;SDS011;2689;50.954;7.116;2023-05-10T02:38:54;9.53;;;5.93;;
5333;SDS011;2689;50.954;7.116;2023-05-10T02:41:22;12.70;;;5.40;;
5333;SDS011;2689;50.954;7.116;2023-05-10T02:43:51;5.87;;;5.17;;
5333;SDS011;2689;50.954;7.116;2023-05-10T02:46:23;10.73;;;6.40;;
5333;SDS011;2689;50.954;7.116;2023-05-10T02:48:50;8.17;;;5.97;;
5333;SDS011;2689;50.954;7.116;2023-05-10T02:51:16;6.60;;;5.33;;
5333;SDS011;2689;50.954;7.116;2023-05-10T02:53:46;9.70;;;5.97;;
5333;SDS011;2689;50.954;7.116;2023-05-10T02:56:20;6.07;;;4.90;;
5333;SDS011;2689;50.954;7.116;2023-05-10T02:58:59;7.40;;;6.10;;
5333;SDS011;2689;50.954;7.116;2023-05-10T03:01:26;9.07;;;5.40;;
5333;SDS011;2689;50.954;7.116;2023-05-10T03:03:52;7.50;;;5.60;;
5333;SDS011;2689;50.954;7.116;2023-05-10T03:06:19;7.07;;;5.70;;
5333;SDS011;2689;50.954;7.116;2023-05-10T03:08:46;7.80;;;5.77;;
5333;SDS011;2689;50.954;7.116;2023-05-10T03:11:23;7.60;;;5.63;;
5333;SDS011;2689;50.954;7.116;2023-05-10T03:14:01;11.43;;;6.27;;
5333;SDS011;2689;50.954;7.116;2023-05-10T03:16:38;16.40;;;6.10;;
5333;SDS011;2689;50.954;7.116;2023-05-10T03:19:12;7.20;;;5.33;;
5333;SDS011;2689;50.954;7.116;2023-05-10T03:21:49;7.23;;;6.27;;
5333;SDS011;2689;50.954;7.116;2023-05-10T03:24:18;10.63;;;5.83;;
5333;SDS011;2689;50.954;7.116;2023-05-10T03:26:49;6.73;;;5.23;;
5333;SDS011;2689;50.954;7.116;2023-05-10T03:29:16;8.83;;;6.50;;
5333;SDS011;2689;50.954;7.116;2023-05-10T03:31:43;8.17;;;7.13;;
5333;SDS011;2689;50.954;7.116;2023-05-10T03:34:10;8.93;;;7.07;;
5333;SDS011;2689;50.954;7.116;2023-05-10T03:36:37;7.33;;;6.20;;
5333;SDS011;2689;50.954;7.116;2023-05-10T03:39:03;7.90;;;6.00;;
5333;SDS011;2689;50.954;7.116;2023-05-10T03:41:31;9.20;;;6.50;;
5333;SDS011;2689;50.954;7.116;2023-05-10T03:43:59;9.03;;;6.30;;
5333;SDS011;2689;50.954;7.116;2023-05-10T03:46:26;9.77;;;5.77;;
5333;SDS011;2689;50.954;7.116;2023-05-10T03:48:52;7.27;;;6.50;;
5333;SDS011;2689;50.954;7.116;2023-05-10T03:51:19;7.77;;;6.13;;
5333;SDS011;2689;50.954;7.116;2023-05-10T03:53:47;9.10;;;6.67;;
5333;SDS011;2689;50.954;7.116;2023-05-10T03:56:13;9.47;;;6.30;;
5333;SDS011;2689;50.954;7.116;2023-05-10T03:58:40;8.33;;;6.30;;
5333;SDS011;2689;50.954;7.116;2023-05-10T04:01:08;8.33;;;6.70;;
5333;SDS011;2689;50.954;7.116;2023-05-10T04:03:35;8.97;;;7.03;;
5333;SDS011;2689;50.954;7.116;2023-05-10T04:06:03;11.90;;;7.33;;
5333;SDS011;2689;50.954;7.116;2023-05-10T04:08:34;8.17;;;6.90;;
5333;SDS011;2689;50.954;7.116;2023-05-10T04:11:04;8.50;;;7.10;;
5333;SDS011;2689;50.954;7.116;2023-05-10T04:13:32;9.70;;;7.40;;
5333;SDS011;2689;50.954;7.116;2023-05-10T04:15:59;12.57;;;7.03;;
5333;SDS011;2689;50.954;7.116;2023-05-10T04:18:27;11.20;;;7.47;;
5333;SDS011;2689;50.954;7.116;2023-05-10T04:20:55;9.10;;;7.30;;
5333;SDS011;2689;50.954;7.116;2023-05-10T04:23:21;11.93;;;8.80;;
5333;SDS011;2689;50.954;7.116;2023-05-10T04:25:48;9.83;;;7.90;;
5333;SDS011;2689;50.954;7.116;2023-05-10T04:28:15;9.90;;;8.50;;
5333;SDS011;2689;50.954;7.116;2023-05-10T04:30:41;12.93;;;8.80;;
5333;SDS011;2689;50.954;7.116;2023-05-10T04:33:08;13.20;;;9.40;;
5333;SDS011;2689;50.954;7.116;2023-05-10T04:35:36;16.33;;;9.00;;
5333;SDS011;2689;50.954;7.116;2023-05-10T04:38:04;11.03;;;9.40;;
5333;SDS011;2689;50.954;7.116;2023-05-10T04:40:31;10.70;;;8.70;;
5333;SDS011;2689;50.954;7.116;2023-05-10T04:42:59;15.83;;;8.90;;
5333;SDS011;2689;50.954;7.116;2023-05-10T04:45:25;16.53;;;9.43;;
5333;SDS011;2689;50.954;7.116;2023-05-10T04:47:52;14.53;;;10.63;;
5333;SDS011;2689;50.954;7.116;2023-05-10T04:50:19;11.00;;;9.20;;
5333;SDS011;2689;50.954;7.116;2023-05-10T04:52:48;14.50;;;10.03;;
5333;SDS011;2689;50.954;7.116;2023-05-10T04:55:15;11.97;;;8.73;;
5333;SDS011;2689;50.954;7.116;2023-05-10T04:57:44;15.60;;;11.50;;
5333;SDS011;2689;50.954;7.116;2023-05-10T05:00:11;13.20;;;11.47;;
5333;SDS011;2689;50.954;7.116;2023-05-10T05:02:42;13.47;;;10.83;;
5333;SDS011;2689;50.954;7.116;2023-05-10T05:05:12;14.53;;;10.23;;
5333;SDS011;2689;50.954;7.116;2023-05-10T05:07:38;14.77;;;11.80;;
5333;SDS011;2689;50.954;7.116;2023-05-10T05:10:07;20.20;;;14.57;;
5333;SDS011;2689;50.954;7.116;2023-05-10T05:12:34;18.87;;;13.70;;
5333;SDS011;2689;50.954;7.116;2023-05-10T05:15:01;22.43;;;13.00;;
5333;SDS011;2689;50.954;7.116;2023-05-10T05:17:30;26.90;;;15.10;;
5333;SDS011;2689;50.954;7.116;2023-05-10T05:19:57;18.30;;;14.93;;
5333;SDS011;2689;50.954;7.116;2023-05-10T05:22:24;20.07;;;14.80;;
5333;SDS011;2689;50.954;7.116;2023-05-10T05:24:52;19.33;;;13.90;;
5333;SDS011;2689;50.954;7.116;2023-05-10T05:27:20;24.87;;;16.80;;
5333;SDS011;2689;50.954;7.116;2023-05-10T05:29:49;20.87;;;15.73;;
5333;SDS011;2689;50.954;7.116;2023-05-10T05:32:16;26.13;;;17.30;;
5333;SDS011;2689;50.954;7.116;2023-05-10T05:34:43;22.43;;;16.00;;
5333;SDS011;2689;50.954;7.116;2023-05-10T05:37:12;26.13;;;16.20;;
5333;SDS011;2689;50.954;7.116;2023-05-10T05:39:39;25.37;;;15.73;;
5333;SDS011;2689;50.954;7.116;2023-05-10T05:42:06;22.23;;;15.77;;
5333;SDS011;2689;50.954;7.116;2023-05-10T05:44:34;26.57;;;17.63;;
5333;SDS011;2689;50.954;7.116;2023-05-10T05:47:01;23.33;;;14.93;;
5333;SDS011;2689;50.954;7.116;2023-05-10T05:49:28;19.50;;;14.33;;
5333;SDS011;2689;50.954;7.116;2023-05-10T05:51:58;19.10;;;14.13;;
5333;SDS011;2689;50.954;7.116;2023-05-10T05:54:25;22.53;;;14.40;;
5333;SDS011;2689;50.954;7.116;2023-05-10T05:56:53;24.73;;;16.50;;
5333;SDS011;2689;50.954;7.116;2023-05-10T05:59:20;20.43;;;14.17;;
5333;SDS011;2689;50.954;7.116;2023-05-10T06:01:48;24.07;;;15.40;;
5333;SDS011;2689;50.954;7.116;2023-05-10T06:04:15;23.53;;;15.53;;
5333;SDS011;2689;50.954;7.116;2023-05-10T06:06:41;19.23;;;14.87;;
5333;SDS011;2689;50.954;7.116;2023-05-10T06:09:11;21.90;;;14.03;;
5333;SDS011;2689;50.954;7.116;2023-05-10T06:11:38;21.77;;;14.03;;
5333;SDS011;2689;50.954;7.116;2023-05-10T06:14:05;18.47;;;11.80;;
5333;SDS011;2689;50.954;7.116;2023-05-10T06:16:33;19.90;;;12.17;;
5333;SDS011;2689;50.954;7.116;2023-05-10T06:19:01;15.20;;;9.33;;
5333;SDS011;2689;50.954;7.116;2023-05-10T06:21:28;25.67;;;12.33;;
5333;SDS011;2689;50.954;7.116;2023-05-10T06:23:55;19.80;;;12.43;;
5333;SDS011;2689;50.954;7.116;2023-05-10T06:26:21;21.50;;;13.60;;
5333;SDS011;2689;50.954;7.116;2023-05-10T06:28:48;17.97;;;10.60;;
5333;SDS011;2689;50.954;7.116;2023-05-10T06:31:15;18.13;;;12.43;;
5333;SDS011;2689;50.954;7.116;2023-05-10T06:33:42;20.10;;;13.87;;
5333;SDS011;2689;50.954;7.116;2023-05-10T06:36:11;25.47;;;15.57;;
5333;SDS011;2689;50.954;7.116;2023-05-10T06:38:38;22.53;;;13.17;;
5333;SDS011;2689;50.954;7.116;2023-05-10T06:41:05;21.90;;;13.23;;
5333;SDS011;2689;50.954;7.116;2023-05-10T06:43:34;18.90;;;11.20;;
5333;SDS011;2689;50.954;7.116;2023-05-10T06:46:02;16.80;;;10.83;;
5333;SDS011;2689;50.954;7.116;2023-05-10T06:48:29;19.73;;;12.10;;
5333;SDS011;2689;50.954;7.116;2023-05-10T06:50:56;21.67;;;14.47;;
5333;SDS011;2689;50.954;7.116;2023-05-10T06:53:24;24.53;;;14.10;;
5333;SDS011;2689;50.954;7.116;2023-05-10T06:55:51;14.97;;;10.30;;
5333;SDS011;2689;50.954;7.116;2023-05-10T06:58:17;20.57;;;13.13;;
5333;SDS011;2689;50.954;7.116;2023-05-10T07:00:52;21.60;;;13.43;;
5333;SDS011;2689;50.954;7.116;2023-05-10T07:03:18;19.20;;;12.93;;
5333;SDS011;2689;50.954;7.116;2023-05-10T07:05:45;15.87;;;12.13;;
5333;SDS011;2689;50.954;7.116;2023-05-10T07:08:13;18.03;;;13.00;;
5333;SDS011;2689;50.954;7.116;2023-05-10T07:10:41;21.33;;;11.97;;
5333;SDS011;2689;50.954;7.116;2023-05-10T07:13:08;17.90;;;12.80;;
5333;SDS011;2689;50.954;7.116;2023-05-10T07:15:35;18.77;;;12.63;;
5333;SDS011;2689;50.954;7.116;2023-05-10T07:18:02;15.03;;;12.20;;
5333;SDS011;2689;50.954;7.116;2023-05-10T07:20:30;18.10;;;12.90;;
5333;SDS011;2689;50.954;7.116;2023-05-10T07:23:00;20.63;;;13.97;;
5333;SDS011;2689;50.954;7.116;2023-05-10T07:25:26;20.70;;;14.03;;
5333;SDS011;2689;50.954;7.116;2023-05-10T07:27:54;23.63;;;13.70;;
5333;SDS011;2689;50.954;7.116;2023-05-10T07:30:21;22.47;;;13.57;;
5333;SDS011;2689;50.954;7.116;2023-05-10T07:32:48;23.00;;;13.40;;
5333;SDS011;2689;50.954;7.116;2023-05-10T07:35:15;22.37;;;14.63;;
5333;SDS011;2689;50.954;7.116;2023-05-10T07:37:42;26.30;;;14.10;;
5333;SDS011;2689;50.954;7.116;2023-05-10T07:40:09;23.53;;;13.97;;
5333;SDS011;2689;50.954;7.116;2023-05-10T07:42:36;19.80;;;13.63;;
5333;SDS011;2689;50.954;7.116;2023-05-10T07:45:05;26.40;;;15.23;;
5333;SDS011;2689;50.954;7.116;2023-05-10T07:47:34;21.37;;;12.80;;
5333;SDS011;2689;50.954;7.116;2023-05-10T07:50:01;29.50;;;16.17;;
5333;SDS011;2689;50.954;7.116;2023-05-10T07:52:29;24.40;;;14.60;;
5333;SDS011;2689;50.954;7.116;2023-05-10T07:54:55;30.67;;;16.63;;
5333;SDS011;2689;50.954;7.116;2023-05-10T07:57:22;23.60;;;16.10;;
5333;SDS011;2689;50.954;7.116;2023-05-10T07:59:49;24.00;;;16.23;;
5333;SDS011;2689;50.954;7.116;2023-05-10T08:02:20;29.00;;;17.00;;
5333;SDS011;2689;50.954;7.116;2023-05-10T08:04:46;20.97;;;15.43;;
5333;SDS011;2689;50.954;7.116;2023-05-10T08:07:13;21.33;;;15.10;;
5333;SDS011;2689;50.954;7.116;2023-05-10T08:09:40;25.97;;;18.00;;
5333;SDS011;2689;50.954;7.116;2023-05-10T08:12:06;26.30;;;17.27;;
5333;SDS011;2689;50.954;7.116;2023-05-10T08:14:33;27.60;;;17.00;;
5333;SDS011;2689;50.954;7.116;2023-05-10T08:17:01;25.27;;;17.20;;
5333;SDS011;2689;50.954;7.116;2023-05-10T08:19:29;26.87;;;17.23;;
5333;SDS011;2689;50.954;7.116;2023-05-10T08:21:56;24.13;;;15.83;;
5333;SDS011;2689;50.954;7.116;2023-05-10T08:24:23;23.43;;;16.13;;
5333;SDS011;2689;50.954;7.116;2023-05-10T08:26:49;22.87;;;16.10;;
5333;SDS011;2689;50.954;7.116;2023-05-10T08:29:16;24.67;;;16.57;;
5333;SDS011;2689;50.954;7.116;2023-05-10T08:31:43;28.70;;;15.57;;
5333;SDS011;2689;50.954;7.116;2023-05-10T08:34:10;19.50;;;15.13;;
5333;SDS011;2689;50.954;7.116;2023-05-10T08:36:40;23.30;;;15.13;;
5333;SDS011;2689;50.954;7.116;2023-05-10T08:39:07;20.23;;;15.47;;
5333;SDS011;2689;50.954;7.116;2023-05-10T08:41:34;20.87;;;15.20;;
5333;SDS011;2689;50.954;7.116;2023-05-10T08:44:04;16.83;;;12.90;;
5333;SDS011;2689;50.954;7.116;2023-05-10T08:46:34;24.23;;;13.70;;
5333;SDS011;2689;50.954;7.116;2023-05-10T08:49:04;20.70;;;13.00;;
5333;SDS011;2689;50.954;7.116;2023-05-10T08:51:36;21.80;;;12.30;;
5333;SDS011;2689;50.954;7.116;2023-05-10T08:54:05;15.87;;;11.67;;
5333;SDS011;2689;50.954;7.116;2023-05-10T08:56:32;14.00;;;10.73;;
5333;SDS011;2689;50.954;7.116;2023-05-10T08:58:59;14.70;;;10.47;;
5333;SDS011;2689;50.954;7.116;2023-05-10T09:01:26;15.27;;;10.40;;
5333;SDS011;2689;50.954;7.116;2023-05-10T09:03:53;13.70;;;9.73;;
5333;SDS011;2689;50.954;7.116;2023-05-10T09:06:20;14.60;;;10.53;;
5333;SDS011;2689;50.954;7.116;2023-05-10T09:08:48;14.50;;;8.60;;
5333;SDS011;2689;50.954;7.116;2023-05-10T09:11:16;12.27;;;9.07;;
5333;SDS011;2689;50.954;7.116;2023-05-10T09:13:44;11.27;;;8.80;;
5333;SDS011;2689;50.954;7.116;2023-05-10T09:16:11;9.83;;;8.40;;
5333;SDS011;2689;50.954;7.116;2023-05-10T09:18:38;10.20;;;8.20;;
5333;SDS011;2689;50.954;7.116;2023-05-10T09:21:05;11.80;;;8.80;;
5333;SDS011;2689;50.954;7.116;2023-05-10T09:23:31;11.20;;;8.50;;
5333;SDS011;2689;50.954;7.116;2023-05-10T09:26:03;13.53;;;10.77;;
5333;SDS011;2689;50.954;7.116;2023-05-10T09:28:33;14.27;;;11.47;;
5333;SDS011;2689;50.954;7.116;2023-05-10T09:31:16;15.50;;;10.93;;
5333;SDS011;2689;50.954;7.116;2023-05-10T09:33:45;16.03;;;11.53;;
5333;SDS011;2689;50.954;7.116;2023-05-10T09:36:12;15.90;;;12.50;;
5333;SDS011;2689;50.954;7.116;2023-05-10T09:38:46;16.23;;;11.60;;
5333;SDS011;2689;50.954;7.116;2023-05-10T09:41:18;19.43;;;12.13;;
5333;SDS011;2689;50.954;7.116;2023-05-10T09:43:46;19.10;;;13.00;;
5333;SDS011;2689;50.954;7.116;2023-05-10T09:46:13;19.17;;;13.30;;
5333;SDS011;2689;50.954;7.116;2023-05-10T09:48:41;18.57;;;13.07;;
5333;SDS011;2689;50.954;7.116;2023-05-10T09:51:09;18.27;;;12.40;;
5333;SDS011;2689;50.954;7.116;2023-05-10T09:53:36;16.90;;;12.87;;
5333;SDS011;2689;50.954;7.116;2023-05-10T09:56:05;18.67;;;14.37;;
5333;SDS011;2689;50.954;7.116;2023-05-10T09:58:36;24.10;;;13.97;;
5333;SDS011;2689;50.954;7.116;2023-05-10T10:01:04;21.07;;;14.17;;
5333;SDS011;2689;50.954;7.116;2023-05-10T10:03:30;25.33;;;16.47;;
5333;SDS011;2689;50.954;7.116;2023-05-10T10:05:57;23.53;;;15.73;;
5333;SDS011;2689;50.954;7.116;2023-05-10T10:08:24;21.03;;;15.00;;
5333;SDS011;2689;50.954;7.116;2023-05-10T10:10:51;27.13;;;18.10;;
5333;SDS011;2689;50.954;7.116;2023-05-10T10:13:18;22.87;;;16.50;;
5333;SDS011;2689;50.954;7.116;2023-05-10T10:15:46;20.70;;;14.70;;
5333;SDS011;2689;50.954;7.116;2023-05-10T10:18:15;27.47;;;16.70;;
5333;SDS011;2689;50.954;7.116;2023-05-10T10:20:44;28.13;;;16.00;;
5333;SDS011;2689;50.954;7.116;2023-05-10T10:23:12;27.80;;;16.50;;
5333;SDS011;2689;50.954;7.116;2023-05-10T10:25:38;27.63;;;17.20;;
5333;SDS011;2689;50.954;7.116;2023-05-10T10:28:09;30.23;;;18.13;;
5333;SDS011;2689;50.954;7.116;2023-05-10T10:30:48;26.23;;;15.90;;
5333;SDS011;2689;50.954;7.116;2023-05-10T10:33:30;23.70;;;15.47;;
5333;SDS011;2689;50.954;7.116;2023-05-10T10:36:05;23.40;;;13.90;;
5333;SDS011;2689;50.954;7.116;2023-05-10T10:41:29;21.63;;;14.97;;
5333;SDS011;2689;50.954;7.116;2023-05-10T10:44:22;22.50;;;14.43;;
5333;SDS011;2689;50.954;7.116;2023-05-10T10:47:09;22.20;;;15.20;;
5333;SDS011;2689;50.954;7.116;2023-05-10T10:49:54;21.30;;;14.50;;
5333;SDS011;2689;50.954;7.116;2023-05-10T10:52:33;24.63;;;14.67;;
5333;SDS011;2689;50.954;7.116;2023-05-10T10:55:01;24.27;;;16.80;;
5333;SDS011;2689;50.954;7.116;2023-05-10T10:57:42;19.97;;;14.47;;
5333;SDS011;2689;50.954;7.116;2023-05-10T11:00:18;20.70;;;13.67;;
5333;SDS011;2689;50.954;7.116;2023-05-10T11:02:57;19.97;;;13.53;;
5333;SDS011;2689;50.954;7.116;2023-05-10T11:05:33;19.27;;;13.67;;
5333;SDS011;2689;50.954;7.116;2023-05-10T11:08:10;17.80;;;12.83;;
5333;SDS011;2689;50.954;7.116;2023-05-10T11:10:39;18.83;;;11.60;;
5333;SDS011;2689;50.954;7.116;2023-05-10T11:13:29;17.40;;;11.47;;
5333;SDS011;2689;50.954;7.116;2023-05-10T11:15:57;13.93;;;9.27;;
5333;SDS011;2689;50.954;7.116;2023-05-10T11:18:27;18.00;;;11.13;;
5333;SDS011;2689;50.954;7.116;2023-05-10T11:20:56;16.80;;;11.13;;
5333;SDS011;2689;50.954;7.116;2023-05-10T11:23:29;11.80;;;7.83;;
5333;SDS011;2689;50.954;7.116;2023-05-10T11:25:56;12.83;;;9.20;;
5333;SDS011;2689;50.954;7.116;2023-05-10T11:28:24;13.93;;;10.00;;
5333;SDS011;2689;50.954;7.116;2023-05-10T11:30:52;11.43;;;9.77;;
5333;SDS011;2689;50.954;7.116;2023-05-10T11:33:20;14.13;;;9.27;;
5333;SDS011;2689;50.954;7.116;2023-05-10T11:35:48;12.97;;;10.10;;
5333;SDS011;2689;50.954;7.116;2023-05-10T11:38:15;13.20;;;8.20;;
5333;SDS011;2689;50.954;7.116;2023-05-10T11:40:41;13.20;;;8.23;;
5333;SDS011;2689;50.954;7.116;2023-05-10T11:43:09;15.80;;;10.50;;
5333;SDS011;2689;50.954;7.116;2023-05-10T11:45:37;12.50;;;9.40;;
5333;SDS011;2689;50.954;7.116;2023-05-10T11:48:04;12.20;;;9.13;;
5333;SDS011;2689;50.954;7.116;2023-05-10T11:50:31;11.50;;;7.47;;
5333;SDS011;2689;50.954;7.116;2023-05-10T11:52:59;13.47;;;8.10;;
5333;SDS011;2689;50.954;7.116;2023-05-10T11:55:26;7.97;;;5.40;;
5333;SDS011;2689;50.954;7.116;2023-05-10T11:57:55;7.90;;;5.70;;
5333;SDS011;2689;50.954;7.116;2023-05-10T12:00:26;7.67;;;5.57;;
5333;SDS011;2689;50.954;7.116;2023-05-10T12:02:52;6.63;;;5.77;;
5333;SDS011;2689;50.954;7.116;2023-05-10T12:05:19;4.77;;;4.03;;
5333;SDS011;2689;50.954;7.116;2023-05-10T12:07:46;5.20;;;4.30;;
5333;SDS011;2689;50.954;7.116;2023-05-10T12:10:17;6.33;;;4.53;;
5333;SDS011;2689;50.954;7.116;2023-05-10T12:12:52;5.50;;;4.70;;
5333;SDS011;2689;50.954;7.116;2023-05-10T12:15:20;5.00;;;4.03;;
5333;SDS011;2689;50.954;7.116;2023-05-10T12:17:48;9.10;;;4.60;;
5333;SDS011;2689;50.954;7.116;2023-05-10T12:20:16;5.70;;;3.90;;
5333;SDS011;2689;50.954;7.116;2023-05-10T12:22:45;4.67;;;3.50;;
5333;SDS011;2689;50.954;7.116;2023-05-10T12:25:13;3.77;;;2.80;;
5333;SDS011;2689;50.954;7.116;2023-05-10T12:27:42;3.87;;;2.93;;
5333;SDS011;2689;50.954;7.116;2023-05-10T12:30:20;4.20;;;2.97;;
5333;SDS011;2689;50.954;7.116;2023-05-10T12:32:48;4.90;;;2.80;;
5333;SDS011;2689;50.954;7.116;2023-05-10T12:35:15;2.90;;;2.23;;
5333;SDS011;2689;50.954;7.116;2023-05-10T12:37:45;2.40;;;1.97;;
5333;SDS011;2689;50.954;7.116;2023-05-10T12:40:12;2.60;;;2.13;;
5333;SDS011;2689;50.954;7.116;2023-05-10T12:42:44;2.80;;;2.40;;
5333;SDS011;2689;50.954;7.116;2023-05-10T12:45:13;4.37;;;2.03;;
5333;SDS011;2689;50.954;7.116;2023-05-10T12:47:40;3.40;;;2.30;;
5333;SDS011;2689;50.954;7.116;2023-05-10T12:50:07;4.80;;;2.50;;
5333;SDS011;2689;50.954;7.116;2023-05-10T12:52:34;8.47;;;4.40;;
5333;SDS011;2689;50.954;7.116;2023-05-10T12:55:02;3.83;;;2.50;;
5333;SDS011;2689;50.954;7.116;2023-05-10T12:57:29;2.90;;;2.43;;
5333;SDS011;2689;50.954;7.116;2023-05-10T12:59:57;2.77;;;2.23;;
5333;SDS011;2689;50.954;7.116;2023-05-10T13:02:24;2.70;;;2.10;;
5333;SDS011;2689;50.954;7.116;2023-05-10T13:04:50;2.73;;;2.10;;
5333;SDS011;2689;50.954;7.116;2023-05-10T13:07:17;2.37;;;2.17;;
5333;SDS011;2689;50.954;7.116;2023-05-10T13:09:45;3.70;;;2.90;;
5333;SDS011;2689;50.954;7.116;2023-05-10T13:12:12;2.60;;;2.13;;
5333;SDS011;2689;50.954;7.116;2023-05-10T13:14:39;2.97;;;2.40;;
5333;SDS011;2689;50.954;7.116;2023-05-10T13:17:08;3.87;;;2.70;;
5333;SDS011;2689;50.954;7.116;2023-05-10T13:19:35;3.03;;;2.67;;
5333;SDS011;2689;50.954;7.116;2023-05-10T13:24:39;4.60;;;2.10;;
5333;SDS011;2689;50.954;7.116;2023-05-10T13:27:06;2.70;;;1.97;;
5333;SDS011;2689;50.954;7.116;2023-05-10T13:29:33;3.10;;;2.20;;
5333;SDS011;2689;50.954;7.116;2023-05-10T13:31:59;2.50;;;2.00;;
5333;SDS011;2689;50.954;7.116;2023-05-10T13:34:28;3.33;;;2.40;;
5333;SDS011;2689;50.954;7.116;2023-05-10T13:36:55;1.90;;;1.70;;
5333;SDS011;2689;50.954;7.116;2023-05-10T13:39:22;2.20;;;1.80;;
5333;SDS011;2689;50.954;7.116;2023-05-10T13:41:49;3.83;;;1.67;;
5333;SDS011;2689;50.954;7.116;2023-05-10T13:44:16;2.27;;;1.60;;
5333;SDS011;2689;50.954;7.116;2023-05-10T13:46:43;2.30;;;1.70;;
5333;SDS011;2689;50.954;7.116;2023-05-10T13:49:12;2.63;;;1.80;;
5333;SDS011;2689;50.954;7.116;2023-05-10T13:51:40;2.77;;;1.90;;
5333;SDS011;2689;50.954;7.116;2023-05-10T13:54:07;2.47;;;2.27;;
5333;SDS011;2689;50.954;7.116;2023-05-10T13:56:33;3.47;;;1.80;;
5333;SDS011;2689;50.954;7.116;2023-05-10T13:59:00;3.90;;;1.90;;
5333;SDS011;2689;50.954;7.116;2023-05-10T14:01:27;3.90;;;2.83;;
5333;SDS011;2689;50.954;7.116;2023-05-10T14:03:54;4.27;;;2.63;;
5333;SDS011;2689;50.954;7.116;2023-05-10T14:06:21;3.57;;;2.43;;
5333;SDS011;2689;50.954;7.116;2023-05-10T14:08:49;1.90;;;1.70;;
5333;SDS011;2689;50.954;7.116;2023-05-10T14:11:15;2.10;;;1.50;;
5333;SDS011;2689;50.954;7.116;2023-05-10T14:13:42;2.80;;;1.53;;
5333;SDS011;2689;50.954;7.116;2023-05-10T14:16:09;3.93;;;1.60;;
5333;SDS011;2689;50.954;7.116;2023-05-10T14:18:36;2.03;;;1.67;;
5333;SDS011;2689;50.954;7.116;2023-05-10T14:21:03;2.33;;;1.53;;
5333;SDS011;2689;50.954;7.116;2023-05-10T14:23:30;4.50;;;1.77;;
5333;SDS011;2689;50.954;7.116;2023-05-10T14:25:58;3.70;;;2.17;;
5333;SDS011;2689;50.954;7.116;2023-05-10T14:28:25;3.23;;;2.20;;
5333;SDS011;2689;50.954;7.116;2023-05-10T14:30:52;4.73;;;1.70;;
5333;SDS011;2689;50.954;7.116;2023-05-10T14:33:19;1.63;;;1.40;;
5333;SDS011;2689;50.954;7.116;2023-05-10T14:35:46;2.00;;;1.50;;
5333;SDS011;2689;50.954;7.116;2023-05-10T14:38:13;2.50;;;1.50;;
5333;SDS011;2689;50.954;7.116;2023-05-10T14:40:40;2.07;;;1.63;;
5333;SDS011;2689;50.954;7.116;2023-05-10T14:43:09;2.13;;;1.67;;
5333;SDS011;2689;50.954;7.116;2023-05-10T14:45:38;5.07;;;1.80;;
5333;SDS011;2689;50.954;7.116;2023-05-10T14:48:04;2.30;;;1.70;;
5333;SDS011;2689;50.954;7.116;2023-05-10T14:50:33;2.73;;;1.97;;
5333;SDS011;2689;50.954;7.116;2023-05-10T14:53:00;1.90;;;1.40;;
5333;SDS011;2689;50.954;7.116;2023-05-10T14:55:30;3.13;;;2.23;;
5333;SDS011;2689;50.954;7.116;2023-05-10T14:57:57;2.40;;;1.80;;
5333;SDS011;2689;50.954;7.116;2023-05-10T15:00:25;3.27;;;1.90;;
5333;SDS011;2689;50.954;7.116;2023-05-10T15:02:53;2.63;;;1.53;;
5333;SDS011;2689;50.954;7.116;2023-05-10T15:05:20;4.13;;;1.77;;
5333;SDS011;2689;50.954;7.116;2023-05-10T15:07:47;3.00;;;1.57;;
5333;SDS011;2689;50.954;7.116;2023-05-10T15:10:14;2.13;;;1.50;;
5333;SDS011;2689;50.954;7.116;2023-05-10T15:12:41;2.37;;;1.60;;
5333;SDS011;2689;50.954;7.116;2023-05-10T15:15:08;2.13;;;1.53;;
5333;SDS011;2689;50.954;7.116;2023-05-10T15:17:36;2.07;;;1.53;;